sensor_id;sensor_type;location;lat;lon;timestamp;P1;durP1;ratioP1;P2;durP2;ratioP2
37657;SDS011;23500;53.268;8.308;2023-05-09T00:00:11;5.82;;;5.32;;
37657;SDS011;23500;53.268;8.308;2023-05-09T00:02:38;5.88;;;5.38;;
37657;SDS011;23500;53.268;8.308;2023-05-09T00:05:04;5.65;;;5.15;;
37657;SDS011;23500;53.268;8.308;2023-05-09T00:07:31;5.97;;;5.32;;
37657;SDS011;23500;53.268;8.308;2023-05-09T00:09:58;5.53;;;5.03;;
37657;SDS011;23500;53.268;8.308;2023-05-09T00:12:24;5.60;;;5.20;;
37657;SDS011;23500;53.268;8.308;2023-05-09T00:14:50;5.38;;;4.88;;
37657;SDS011;23500;53.268;8.308;2023-05-09T00:17:18;5.75;;;5.25;;
37657;SDS011;23500;53.268;8.308;2023-05-09T00:19:46;5.70;;;5.20;;
37657;SDS011;23500;53.268;8.308;2023-05-09T00:22:14;5.97;;;5.43;;
37657;SDS011;23500;53.268;8.308;2023-05-09T00:24:41;5.53;;;4.95;;
37657;SDS011;23500;53.268;8.308;2023-05-09T00:27:06;5.32;;;4.93;;
37657;SDS011;23500;53.268;8.308;2023-05-09T00:29:32;5.80;;;5.30;;
37657;SDS011;23500;53.268;8.308;2023-05-09T00:31:58;5.72;;;5.20;;
37657;SDS011;23500;53.268;8.308;2023-05-09T00:34:23;5.78;;;5.28;;
37657;SDS011;23500;53.268;8.308;2023-05-09T00:36:49;5.53;;;5.07;;
37657;SDS011;23500;53.268;8.308;2023-05-09T00:39:15;5.78;;;5.28;;
37657;SDS011;23500;53.268;8.308;2023-05-09T00:41:41;5.78;;;5.28;;
37657;SDS011;23500;53.268;8.308;2023-05-09T00:44:07;5.18;;;4.78;;
37657;SDS011;23500;53.268;8.308;2023-05-09T00:46:32;5.63;;;4.93;;
37657;SDS011;23500;53.268;8.308;2023-05-09T00:48:58;5.60;;;5.10;;
37657;SDS011;23500;53.268;8.308;2023-05-09T00:51:24;5.40;;;4.90;;
37657;SDS011;23500;53.268;8.308;2023-05-09T00:53:50;5.40;;;5.00;;
37657;SDS011;23500;53.268;8.308;2023-05-09T00:56:15;5.22;;;4.82;;
37657;SDS011;23500;53.268;8.308;2023-05-09T00:58:41;5.22;;;4.72;;
37657;SDS011;23500;53.268;8.308;2023-05-09T01:01:07;5.40;;;5.00;;
37657;SDS011;23500;53.268;8.308;2023-05-09T01:03:33;5.32;;;4.93;;
37657;SDS011;23500;53.268;8.308;2023-05-09T01:08:33;5.03;;;4.63;;
37657;SDS011;23500;53.268;8.308;2023-05-09T01:11:41;5.75;;;5.25;;
37657;SDS011;23500;53.268;8.308;2023-05-09T01:16:55;5.70;;;5.20;;
37657;SDS011;23500;53.268;8.308;2023-05-09T01:22:11;5.00;;;4.60;;
37657;SDS011;23500;53.268;8.308;2023-05-09T01:30:22;5.07;;;4.68;;
37657;SDS011;23500;53.268;8.308;2023-05-09T01:32:50;5.10;;;4.68;;
37657;SDS011;23500;53.268;8.308;2023-05-09T01:35:17;5.25;;;4.75;;
37657;SDS011;23500;53.268;8.308;2023-05-09T01:37:48;4.80;;;4.40;;
37657;SDS011;23500;53.268;8.308;2023-05-09T01:40:15;4.80;;;4.40;;
37657;SDS011;23500;53.268;8.308;2023-05-09T01:42:47;5.25;;;4.85;;
37657;SDS011;23500;53.268;8.308;2023-05-09T01:45:16;5.40;;;4.90;;
37657;SDS011;23500;53.268;8.308;2023-05-09T01:47:43;4.90;;;4.50;;
37657;SDS011;23500;53.268;8.308;2023-05-09T01:50:09;4.70;;;4.30;;
37657;SDS011;23500;53.268;8.308;2023-05-09T01:52:36;5.13;;;4.72;;
37657;SDS011;23500;53.268;8.308;2023-05-09T01:55:04;5.25;;;4.80;;
37657;SDS011;23500;53.268;8.308;2023-05-09T01:57:30;4.88;;;4.47;;
37657;SDS011;23500;53.268;8.308;2023-05-09T01:59:58;4.82;;;4.43;;
37657;SDS011;23500;53.268;8.308;2023-05-09T02:02:26;4.70;;;4.38;;
37657;SDS011;23500;53.268;8.308;2023-05-09T02:04:52;4.70;;;4.30;;
37657;SDS011;23500;53.268;8.308;2023-05-09T02:07:20;4.40;;;4.10;;
37657;SDS011;23500;53.268;8.308;2023-05-09T02:09:48;4.80;;;4.40;;
37657;SDS011;23500;53.268;8.308;2023-05-09T02:12:14;5.05;;;4.63;;
37657;SDS011;23500;53.268;8.308;2023-05-09T02:14:39;5.22;;;4.72;;
37657;SDS011;23500;53.268;8.308;2023-05-09T02:17:05;4.78;;;4.38;;
37657;SDS011;23500;53.268;8.308;2023-05-09T02:19:33;5.25;;;4.68;;
37657;SDS011;23500;53.268;8.308;2023-05-09T02:22:00;4.90;;;4.50;;
37657;SDS011;23500;53.268;8.308;2023-05-09T02:24:26;4.88;;;4.38;;
37657;SDS011;23500;53.268;8.308;2023-05-09T02:26:53;4.13;;;3.83;;
37657;SDS011;23500;53.268;8.308;2023-05-09T02:29:19;4.57;;;4.18;;
37657;SDS011;23500;53.268;8.308;2023-05-09T02:31:49;4.60;;;4.30;;
37657;SDS011;23500;53.268;8.308;2023-05-09T02:34:17;4.88;;;4.47;;
37657;SDS011;23500;53.268;8.308;2023-05-09T02:36:43;4.70;;;4.30;;
37657;SDS011;23500;53.268;8.308;2023-05-09T02:39:09;4.35;;;4.05;;
37657;SDS011;23500;53.268;8.308;2023-05-09T02:41:35;4.78;;;4.38;;
37657;SDS011;23500;53.268;8.308;2023-05-09T02:44:01;4.57;;;4.18;;
37657;SDS011;23500;53.268;8.308;2023-05-09T02:46:27;4.80;;;4.40;;
37657;SDS011;23500;53.268;8.308;2023-05-09T02:48:53;4.40;;;4.10;;
37657;SDS011;23500;53.268;8.308;2023-05-09T02:51:19;4.35;;;4.05;;
37657;SDS011;23500;53.268;8.308;2023-05-09T02:53:45;4.50;;;4.20;;
37657;SDS011;23500;53.268;8.308;2023-05-09T02:56:10;4.80;;;4.40;;
37657;SDS011;23500;53.268;8.308;2023-05-09T02:58:36;5.32;;;4.32;;
37657;SDS011;23500;53.268;8.308;2023-05-09T03:01:02;4.90;;;4.50;;
37657;SDS011;23500;53.268;8.308;2023-05-09T03:03:28;4.07;;;3.78;;
37657;SDS011;23500;53.268;8.308;2023-05-09T03:05:54;4.53;;;4.13;;
37657;SDS011;23500;53.268;8.308;2023-05-09T03:08:20;4.72;;;4.32;;
37657;SDS011;23500;53.268;8.308;2023-05-09T03:10:45;4.70;;;4.30;;
37657;SDS011;23500;53.268;8.308;2023-05-09T03:13:11;4.20;;;3.90;;
37657;SDS011;23500;53.268;8.308;2023-05-09T03:15:37;4.60;;;4.20;;
37657;SDS011;23500;53.268;8.308;2023-05-09T03:18:03;4.57;;;4.18;;
37657;SDS011;23500;53.268;8.308;2023-05-09T03:20:28;4.53;;;4.13;;
37657;SDS011;23500;53.268;8.308;2023-05-09T03:22:54;4.72;;;4.32;;
37657;SDS011;23500;53.268;8.308;2023-05-09T03:25:20;4.38;;;4.03;;
37657;SDS011;23500;53.268;8.308;2023-05-09T03:27:46;4.55;;;4.15;;
37657;SDS011;23500;53.268;8.308;2023-05-09T03:30:11;4.13;;;3.83;;
37657;SDS011;23500;53.268;8.308;2023-05-09T03:32:38;4.22;;;3.83;;
37657;SDS011;23500;53.268;8.308;2023-05-09T03:35:03;4.30;;;3.90;;
37657;SDS011;23500;53.268;8.308;2023-05-09T03:37:29;4.50;;;4.15;;
37657;SDS011;23500;53.268;8.308;2023-05-09T03:39:55;4.32;;;3.92;;
37657;SDS011;23500;53.268;8.308;2023-05-09T03:42:21;4.18;;;3.88;;
37657;SDS011;23500;53.268;8.308;2023-05-09T03:44:46;4.20;;;3.90;;
37657;SDS011;23500;53.268;8.308;2023-05-09T03:47:12;4.07;;;3.78;;
37657;SDS011;23500;53.268;8.308;2023-05-09T03:49:38;3.90;;;3.60;;
37657;SDS011;23500;53.268;8.308;2023-05-09T03:52:04;4.20;;;3.90;;
37657;SDS011;23500;53.268;8.308;2023-05-09T03:54:29;4.18;;;3.88;;
37657;SDS011;23500;53.268;8.308;2023-05-09T03:56:55;4.38;;;3.97;;
37657;SDS011;23500;53.268;8.308;2023-05-09T03:59:20;4.18;;;3.88;;
37657;SDS011;23500;53.268;8.308;2023-05-09T04:01:46;4.47;;;4.07;;
37657;SDS011;23500;53.268;8.308;2023-05-09T04:04:12;3.92;;;3.63;;
37657;SDS011;23500;53.268;8.308;2023-05-09T04:06:37;4.00;;;3.70;;
37657;SDS011;23500;53.268;8.308;2023-05-09T04:09:03;4.38;;;3.97;;
37657;SDS011;23500;53.268;8.308;2023-05-09T04:11:29;4.10;;;3.80;;
37657;SDS011;23500;53.268;8.308;2023-05-09T04:13:54;3.90;;;3.60;;
37657;SDS011;23500;53.268;8.308;2023-05-09T04:16:20;3.80;;;3.38;;
37657;SDS011;23500;53.268;8.308;2023-05-09T04:18:46;4.28;;;3.97;;
37657;SDS011;23500;53.268;8.308;2023-05-09T04:21:11;3.90;;;3.60;;
37657;SDS011;23500;53.268;8.308;2023-05-09T04:23:37;4.03;;;3.72;;
37657;SDS011;23500;53.268;8.308;2023-05-09T04:26:03;3.95;;;3.65;;
37657;SDS011;23500;53.268;8.308;2023-05-09T04:28:28;4.28;;;3.42;;
37657;SDS011;23500;53.268;8.308;2023-05-09T04:30:54;4.10;;;3.80;;
37657;SDS011;23500;53.268;8.308;2023-05-09T04:33:20;3.83;;;3.53;;
37657;SDS011;23500;53.268;8.308;2023-05-09T04:35:46;3.80;;;3.50;;
37657;SDS011;23500;53.268;8.308;2023-05-09T04:38:12;4.03;;;3.72;;
37657;SDS011;23500;53.268;8.308;2023-05-09T04:40:38;3.83;;;3.53;;
37657;SDS011;23500;53.268;8.308;2023-05-09T04:43:03;3.95;;;3.65;;
37657;SDS011;23500;53.268;8.308;2023-05-09T04:45:30;3.90;;;3.60;;
37657;SDS011;23500;53.268;8.308;2023-05-09T04:47:55;3.72;;;3.42;;
37657;SDS011;23500;53.268;8.308;2023-05-09T04:50:21;4.20;;;3.83;;
37657;SDS011;23500;53.268;8.308;2023-05-09T04:52:47;3.60;;;3.33;;
37657;SDS011;23500;53.268;8.308;2023-05-09T04:55:12;3.40;;;3.10;;
37657;SDS011;23500;53.268;8.308;2023-05-09T04:57:38;3.78;;;3.47;;
37657;SDS011;23500;53.268;8.308;2023-05-09T05:00:04;3.85;;;3.55;;
37657;SDS011;23500;53.268;8.308;2023-05-09T05:02:35;3.85;;;3.55;;
37657;SDS011;23500;53.268;8.308;2023-05-09T05:05:01;4.13;;;3.72;;
37657;SDS011;23500;53.268;8.308;2023-05-09T05:07:26;3.70;;;3.40;;
37657;SDS011;23500;53.268;8.308;2023-05-09T05:09:52;3.75;;;3.45;;
37657;SDS011;23500;53.268;8.308;2023-05-09T05:12:18;3.60;;;3.30;;
37657;SDS011;23500;53.268;8.308;2023-05-09T05:14:43;3.88;;;3.58;;
37657;SDS011;23500;53.268;8.308;2023-05-09T05:17:09;3.50;;;3.20;;
37657;SDS011;23500;53.268;8.308;2023-05-09T05:19:34;3.63;;;3.28;;
37657;SDS011;23500;53.268;8.308;2023-05-09T05:22:00;3.15;;;2.95;;
37657;SDS011;23500;53.268;8.308;2023-05-09T05:24:26;3.65;;;3.35;;
37657;SDS011;23500;53.268;8.308;2023-05-09T05:26:52;3.42;;;3.22;;
37657;SDS011;23500;53.268;8.308;2023-05-09T05:29:17;3.53;;;3.22;;
37657;SDS011;23500;53.268;8.308;2023-05-09T05:31:44;3.72;;;3.33;;
37657;SDS011;23500;53.268;8.308;2023-05-09T05:34:10;3.70;;;3.08;;
37657;SDS011;23500;53.268;8.308;2023-05-09T05:36:35;3.83;;;3.42;;
37657;SDS011;23500;53.268;8.308;2023-05-09T05:39:01;4.03;;;3.60;;
37657;SDS011;23500;53.268;8.308;2023-05-09T05:41:26;6.50;;;3.75;;
37657;SDS011;23500;53.268;8.308;2023-05-09T05:43:52;4.15;;;3.55;;
37657;SDS011;23500;53.268;8.308;2023-05-09T05:46:18;4.82;;;4.03;;
37657;SDS011;23500;53.268;8.308;2023-05-09T05:48:43;6.32;;;4.00;;
37657;SDS011;23500;53.268;8.308;2023-05-09T05:51:09;8.40;;;4.40;;
37657;SDS011;23500;53.268;8.308;2023-05-09T05:53:35;7.20;;;3.95;;
37657;SDS011;23500;53.268;8.308;2023-05-09T05:56:00;8.65;;;4.90;;
37657;SDS011;23500;53.268;8.308;2023-05-09T05:58:26;6.35;;;4.45;;
37657;SDS011;23500;53.268;8.308;2023-05-09T06:00:52;9.32;;;4.20;;
37657;SDS011;23500;53.268;8.308;2023-05-09T06:03:17;5.90;;;4.70;;
37657;SDS011;23500;53.268;8.308;2023-05-09T06:05:43;10.05;;;5.05;;
37657;SDS011;23500;53.268;8.308;2023-05-09T06:08:10;7.22;;;4.10;;
37657;SDS011;23500;53.268;8.308;2023-05-09T06:10:36;4.65;;;4.13;;
37657;SDS011;23500;53.268;8.308;2023-05-09T06:13:01;8.30;;;4.63;;
37657;SDS011;23500;53.268;8.308;2023-05-09T06:15:27;8.25;;;4.88;;
37657;SDS011;23500;53.268;8.308;2023-05-09T06:17:53;8.80;;;4.78;;
37657;SDS011;23500;53.268;8.308;2023-05-09T06:20:18;7.32;;;4.40;;
37657;SDS011;23500;53.268;8.308;2023-05-09T06:22:44;7.63;;;4.82;;
37657;SDS011;23500;53.268;8.308;2023-05-09T06:25:10;11.68;;;4.88;;
37657;SDS011;23500;53.268;8.308;2023-05-09T06:27:35;9.48;;;5.40;;
37657;SDS011;23500;53.268;8.308;2023-05-09T06:30:01;9.27;;;5.20;;
37657;SDS011;23500;53.268;8.308;2023-05-09T06:32:27;9.00;;;4.85;;
37657;SDS011;23500;53.268;8.308;2023-05-09T06:34:52;10.32;;;4.80;;
37657;SDS011;23500;53.268;8.308;2023-05-09T06:37:18;9.50;;;4.75;;
37657;SDS011;23500;53.268;8.308;2023-05-09T06:39:44;9.13;;;4.93;;
37657;SDS011;23500;53.268;8.308;2023-05-09T06:42:09;8.80;;;4.90;;
37657;SDS011;23500;53.268;8.308;2023-05-09T06:44:35;9.85;;;4.85;;
37657;SDS011;23500;53.268;8.308;2023-05-09T06:47:00;9.00;;;5.00;;
37657;SDS011;23500;53.268;8.308;2023-05-09T06:49:26;8.18;;;4.80;;
37657;SDS011;23500;53.268;8.308;2023-05-09T06:51:52;6.15;;;4.75;;
37657;SDS011;23500;53.268;8.308;2023-05-09T06:54:17;8.65;;;5.32;;
37657;SDS011;23500;53.268;8.308;2023-05-09T06:56:43;9.20;;;4.75;;
37657;SDS011;23500;53.268;8.308;2023-05-09T06:59:09;6.55;;;4.75;;
37657;SDS011;23500;53.268;8.308;2023-05-09T07:01:37;7.00;;;4.82;;
37657;SDS011;23500;53.268;8.308;2023-05-09T07:04:04;8.13;;;5.00;;
37657;SDS011;23500;53.268;8.308;2023-05-09T07:06:30;9.30;;;4.93;;
37657;SDS011;23500;53.268;8.308;2023-05-09T07:08:55;7.38;;;4.80;;
37657;SDS011;23500;53.268;8.308;2023-05-09T07:11:21;8.80;;;4.47;;
37657;SDS011;23500;53.268;8.308;2023-05-09T07:13:47;7.65;;;4.80;;
37657;SDS011;23500;53.268;8.308;2023-05-09T07:16:12;7.22;;;4.65;;
37657;SDS011;23500;53.268;8.308;2023-05-09T07:18:38;8.02;;;4.95;;
37657;SDS011;23500;53.268;8.308;2023-05-09T07:21:04;8.13;;;5.25;;
37657;SDS011;23500;53.268;8.308;2023-05-09T07:23:30;7.30;;;4.50;;
37657;SDS011;23500;53.268;8.308;2023-05-09T07:25:56;7.88;;;4.75;;
37657;SDS011;23500;53.268;8.308;2023-05-09T07:28:25;6.32;;;4.70;;
37657;SDS011;23500;53.268;8.308;2023-05-09T07:30:51;7.25;;;4.68;;
37657;SDS011;23500;53.268;8.308;2023-05-09T07:33:19;9.15;;;5.05;;
37657;SDS011;23500;53.268;8.308;2023-05-09T07:35:45;8.10;;;5.07;;
37657;SDS011;23500;53.268;8.308;2023-05-09T07:38:10;7.70;;;4.82;;
37657;SDS011;23500;53.268;8.308;2023-05-09T07:40:36;8.63;;;4.80;;
37657;SDS011;23500;53.268;8.308;2023-05-09T07:43:02;7.05;;;5.05;;
37657;SDS011;23500;53.268;8.308;2023-05-09T07:45:28;9.32;;;5.25;;
37657;SDS011;23500;53.268;8.308;2023-05-09T07:47:54;7.18;;;5.07;;
37657;SDS011;23500;53.268;8.308;2023-05-09T07:50:19;8.93;;;5.35;;
37657;SDS011;23500;53.268;8.308;2023-05-09T07:52:47;8.50;;;4.72;;
37657;SDS011;23500;53.268;8.308;2023-05-09T07:55:13;7.85;;;4.85;;
37657;SDS011;23500;53.268;8.308;2023-05-09T07:57:39;8.75;;;4.85;;
37657;SDS011;23500;53.268;8.308;2023-05-09T08:00:05;8.63;;;4.82;;
37657;SDS011;23500;53.268;8.308;2023-05-09T08:02:32;7.47;;;4.72;;
37657;SDS011;23500;53.268;8.308;2023-05-09T08:04:57;8.93;;;5.20;;
37657;SDS011;23500;53.268;8.308;2023-05-09T08:07:23;8.57;;;5.43;;
37657;SDS011;23500;53.268;8.308;2023-05-09T08:09:49;9.00;;;4.70;;
37657;SDS011;23500;53.268;8.308;2023-05-09T08:12:14;6.75;;;4.55;;
37657;SDS011;23500;53.268;8.308;2023-05-09T08:14:40;6.03;;;4.80;;
37657;SDS011;23500;53.268;8.308;2023-05-09T08:17:06;8.13;;;5.00;;
37657;SDS011;23500;53.268;8.308;2023-05-09T08:19:31;6.75;;;4.72;;
37657;SDS011;23500;53.268;8.308;2023-05-09T08:21:57;7.13;;;4.75;;
37657;SDS011;23500;53.268;8.308;2023-05-09T08:24:22;7.68;;;5.20;;
37657;SDS011;23500;53.268;8.308;2023-05-09T08:26:48;6.82;;;5.10;;
37657;SDS011;23500;53.268;8.308;2023-05-09T08:29:14;7.80;;;4.82;;
37657;SDS011;23500;53.268;8.308;2023-05-09T08:31:40;8.38;;;5.10;;
37657;SDS011;23500;53.268;8.308;2023-05-09T08:34:06;7.82;;;5.30;;
37657;SDS011;23500;53.268;8.308;2023-05-09T08:36:31;6.63;;;4.70;;
37657;SDS011;23500;53.268;8.308;2023-05-09T08:38:58;8.48;;;5.22;;
37657;SDS011;23500;53.268;8.308;2023-05-09T08:41:23;5.65;;;4.35;;
37657;SDS011;23500;53.268;8.308;2023-05-09T08:43:53;6.43;;;4.60;;
37657;SDS011;23500;53.268;8.308;2023-05-09T08:46:38;7.60;;;4.47;;
37657;SDS011;23500;53.268;8.308;2023-05-09T08:49:07;7.25;;;4.72;;
37657;SDS011;23500;53.268;8.308;2023-05-09T08:51:36;7.57;;;5.28;;
37657;SDS011;23500;53.268;8.308;2023-05-09T08:54:02;7.38;;;5.22;;
37657;SDS011;23500;53.268;8.308;2023-05-09T08:56:29;8.07;;;5.10;;
37657;SDS011;23500;53.268;8.308;2023-05-09T08:58:55;7.30;;;5.05;;
37657;SDS011;23500;53.268;8.308;2023-05-09T09:01:22;6.28;;;4.53;;
37657;SDS011;23500;53.268;8.308;2023-05-09T09:03:50;7.35;;;4.82;;
37657;SDS011;23500;53.268;8.308;2023-05-09T09:06:16;8.32;;;4.93;;
37657;SDS011;23500;53.268;8.308;2023-05-09T09:08:43;5.30;;;4.38;;
37657;SDS011;23500;53.268;8.308;2023-05-09T09:11:11;8.23;;;5.05;;
37657;SDS011;23500;53.268;8.308;2023-05-09T09:13:39;7.97;;;5.13;;
37657;SDS011;23500;53.268;8.308;2023-05-09T09:16:07;5.93;;;4.53;;
37657;SDS011;23500;53.268;8.308;2023-05-09T09:18:35;7.38;;;4.90;;
37657;SDS011;23500;53.268;8.308;2023-05-09T09:21:04;7.53;;;4.97;;
37657;SDS011;23500;53.268;8.308;2023-05-09T09:23:31;7.45;;;4.80;;
37657;SDS011;23500;53.268;8.308;2023-05-09T09:26:01;7.95;;;4.95;;
37657;SDS011;23500;53.268;8.308;2023-05-09T09:28:30;6.88;;;4.55;;
37657;SDS011;23500;53.268;8.308;2023-05-09T09:30:56;7.70;;;4.85;;
37657;SDS011;23500;53.268;8.308;2023-05-09T09:33:23;7.32;;;4.63;;
37657;SDS011;23500;53.268;8.308;2023-05-09T09:35:50;7.53;;;5.20;;
37657;SDS011;23500;53.268;8.308;2023-05-09T09:38:18;7.82;;;5.20;;
37657;SDS011;23500;53.268;8.308;2023-05-09T09:40:56;7.20;;;5.20;;
37657;SDS011;23500;53.268;8.308;2023-05-09T09:43:26;7.10;;;4.72;;
37657;SDS011;23500;53.268;8.308;2023-05-09T09:45:52;6.28;;;4.75;;
37657;SDS011;23500;53.268;8.308;2023-05-09T09:48:25;7.22;;;4.90;;
37657;SDS011;23500;53.268;8.308;2023-05-09T09:50:54;7.10;;;4.72;;
37657;SDS011;23500;53.268;8.308;2023-05-09T09:53:25;6.43;;;4.82;;
37657;SDS011;23500;53.268;8.308;2023-05-09T09:55:54;7.47;;;4.95;;
37657;SDS011;23500;53.268;8.308;2023-05-09T09:58:20;5.78;;;4.60;;
37657;SDS011;23500;53.268;8.308;2023-05-09T10:01:07;7.03;;;4.90;;
37657;SDS011;23500;53.268;8.308;2023-05-09T10:03:41;7.30;;;5.30;;
37657;SDS011;23500;53.268;8.308;2023-05-09T10:06:13;6.15;;;4.60;;
37657;SDS011;23500;53.268;8.308;2023-05-09T10:08:40;7.78;;;4.55;;
37657;SDS011;23500;53.268;8.308;2023-05-09T10:11:07;6.47;;;4.47;;
37657;SDS011;23500;53.268;8.308;2023-05-09T10:13:34;6.72;;;4.93;;
37657;SDS011;23500;53.268;8.308;2023-05-09T10:16:01;8.18;;;4.75;;
37657;SDS011;23500;53.268;8.308;2023-05-09T10:18:28;7.43;;;5.10;;
37657;SDS011;23500;53.268;8.308;2023-05-09T10:20:57;6.38;;;5.03;;
37657;SDS011;23500;53.268;8.308;2023-05-09T10:23:28;6.28;;;5.13;;
37657;SDS011;23500;53.268;8.308;2023-05-09T10:26:16;6.65;;;4.70;;
37657;SDS011;23500;53.268;8.308;2023-05-09T10:28:51;7.43;;;4.82;;
37657;SDS011;23500;53.268;8.308;2023-05-09T10:31:25;6.68;;;5.00;;
37657;SDS011;23500;53.268;8.308;2023-05-09T10:33:52;6.63;;;5.40;;
37657;SDS011;23500;53.268;8.308;2023-05-09T10:36:22;6.50;;;5.03;;
37657;SDS011;23500;53.268;8.308;2023-05-09T10:38:49;6.95;;;5.00;;
37657;SDS011;23500;53.268;8.308;2023-05-09T10:41:17;6.82;;;5.07;;
37657;SDS011;23500;53.268;8.308;2023-05-09T10:43:46;5.68;;;4.50;;
37657;SDS011;23500;53.268;8.308;2023-05-09T10:46:12;6.97;;;4.55;;
37657;SDS011;23500;53.268;8.308;2023-05-09T10:48:39;7.15;;;4.95;;
37657;SDS011;23500;53.268;8.308;2023-05-09T10:51:06;6.50;;;4.93;;
37657;SDS011;23500;53.268;8.308;2023-05-09T10:53:45;6.18;;;4.65;;
37657;SDS011;23500;53.268;8.308;2023-05-09T10:56:28;5.80;;;4.45;;
37657;SDS011;23500;53.268;8.308;2023-05-09T10:58:59;6.40;;;4.80;;
37657;SDS011;23500;53.268;8.308;2023-05-09T11:01:35;7.00;;;5.10;;
37657;SDS011;23500;53.268;8.308;2023-05-09T11:04:12;7.60;;;5.30;;
37657;SDS011;23500;53.268;8.308;2023-05-09T11:14:38;6.25;;;4.80;;
37657;SDS011;23500;53.268;8.308;2023-05-09T11:19:56;6.25;;;4.70;;
37657;SDS011;23500;53.268;8.308;2023-05-09T11:22:29;5.65;;;4.50;;
37657;SDS011;23500;53.268;8.308;2023-05-09T11:25:09;6.30;;;4.90;;
37657;SDS011;23500;53.268;8.308;2023-05-09T11:27:46;6.78;;;4.60;;
37657;SDS011;23500;53.268;8.308;2023-05-09T11:30:14;6.65;;;5.32;;
37657;SDS011;23500;53.268;8.308;2023-05-09T11:35:18;5.65;;;4.60;;
37657;SDS011;23500;53.268;8.308;2023-05-09T11:37:52;5.07;;;4.53;;
37657;SDS011;23500;53.268;8.308;2023-05-09T11:40:24;6.70;;;4.90;;
37657;SDS011;23500;53.268;8.308;2023-05-09T11:42:51;6.03;;;4.78;;
37657;SDS011;23500;53.268;8.308;2023-05-09T11:45:19;6.25;;;4.70;;
37657;SDS011;23500;53.268;8.308;2023-05-09T11:47:46;5.35;;;4.78;;
37657;SDS011;23500;53.268;8.308;2023-05-09T11:50:13;6.18;;;4.80;;
37657;SDS011;23500;53.268;8.308;2023-05-09T11:52:39;5.90;;;4.65;;
37657;SDS011;23500;53.268;8.308;2023-05-09T11:55:06;5.57;;;4.57;;
37657;SDS011;23500;53.268;8.308;2023-05-09T11:57:34;6.93;;;4.78;;
37657;SDS011;23500;53.268;8.308;2023-05-09T12:00:04;7.00;;;4.95;;
37657;SDS011;23500;53.268;8.308;2023-05-09T12:02:30;5.57;;;5.07;;
37657;SDS011;23500;53.268;8.308;2023-05-09T12:05:04;5.97;;;4.50;;
37657;SDS011;23500;53.268;8.308;2023-05-09T12:07:34;5.57;;;4.57;;
37657;SDS011;23500;53.268;8.308;2023-05-09T12:10:03;5.90;;;4.60;;
37657;SDS011;23500;53.268;8.308;2023-05-09T12:12:32;6.22;;;5.00;;
37657;SDS011;23500;53.268;8.308;2023-05-09T12:15:05;5.53;;;4.40;;
37657;SDS011;23500;53.268;8.308;2023-05-09T12:17:33;6.05;;;4.63;;
37657;SDS011;23500;53.268;8.308;2023-05-09T12:19:59;5.78;;;4.68;;
37657;SDS011;23500;53.268;8.308;2023-05-09T12:22:25;6.05;;;4.95;;
37657;SDS011;23500;53.268;8.308;2023-05-09T12:24:51;5.63;;;4.72;;
37657;SDS011;23500;53.268;8.308;2023-05-09T12:27:18;6.13;;;4.80;;
37657;SDS011;23500;53.268;8.308;2023-05-09T12:29:44;5.90;;;4.55;;
37657;SDS011;23500;53.268;8.308;2023-05-09T12:32:14;6.13;;;4.15;;
37657;SDS011;23500;53.268;8.308;2023-05-09T12:34:41;5.40;;;4.35;;
37657;SDS011;23500;53.268;8.308;2023-05-09T12:37:16;5.05;;;4.45;;
37657;SDS011;23500;53.268;8.308;2023-05-09T12:39:59;5.35;;;4.85;;
37657;SDS011;23500;53.268;8.308;2023-05-09T12:42:29;5.80;;;4.25;;
37657;SDS011;23500;53.268;8.308;2023-05-09T12:44:56;6.85;;;4.80;;
37657;SDS011;23500;53.268;8.308;2023-05-09T12:47:25;5.82;;;4.43;;
37657;SDS011;23500;53.268;8.308;2023-05-09T12:49:52;5.07;;;4.05;;
37657;SDS011;23500;53.268;8.308;2023-05-09T12:52:31;5.13;;;4.63;;
37657;SDS011;23500;53.268;8.308;2023-05-09T12:55:03;6.13;;;4.53;;
37657;SDS011;23500;53.268;8.308;2023-05-09T12:57:34;5.18;;;4.57;;
37657;SDS011;23500;53.268;8.308;2023-05-09T13:00:00;5.18;;;4.60;;
37657;SDS011;23500;53.268;8.308;2023-05-09T13:02:32;5.38;;;4.65;;
37657;SDS011;23500;53.268;8.308;2023-05-09T13:05:08;6.70;;;4.57;;
37657;SDS011;23500;53.268;8.308;2023-05-09T13:07:42;5.38;;;4.22;;
37657;SDS011;23500;53.268;8.308;2023-05-09T13:10:12;5.53;;;4.32;;
37657;SDS011;23500;53.268;8.308;2023-05-09T13:12:45;5.53;;;4.60;;
37657;SDS011;23500;53.268;8.308;2023-05-09T13:15:13;5.20;;;4.32;;
37657;SDS011;23500;53.268;8.308;2023-05-09T13:17:40;5.80;;;4.75;;
37657;SDS011;23500;53.268;8.308;2023-05-09T13:20:06;4.85;;;4.03;;
37657;SDS011;23500;53.268;8.308;2023-05-09T13:22:33;5.78;;;4.70;;
37657;SDS011;23500;53.268;8.308;2023-05-09T13:24:59;6.22;;;4.60;;
37657;SDS011;23500;53.268;8.308;2023-05-09T13:27:25;4.75;;;4.10;;
37657;SDS011;23500;53.268;8.308;2023-05-09T13:29:52;5.50;;;4.70;;
37657;SDS011;23500;53.268;8.308;2023-05-09T13:32:17;4.72;;;4.20;;
37657;SDS011;23500;53.268;8.308;2023-05-09T13:34:43;4.75;;;4.22;;
37657;SDS011;23500;53.268;8.308;2023-05-09T13:37:09;5.18;;;4.43;;
37657;SDS011;23500;53.268;8.308;2023-05-09T13:39:35;5.28;;;4.35;;
37657;SDS011;23500;53.268;8.308;2023-05-09T13:42:00;4.60;;;3.92;;
37657;SDS011;23500;53.268;8.308;2023-05-09T13:44:26;6.03;;;4.88;;
37657;SDS011;23500;53.268;8.308;2023-05-09T13:46:53;6.00;;;4.50;;
37657;SDS011;23500;53.268;8.308;2023-05-09T13:49:18;5.72;;;4.60;;
37657;SDS011;23500;53.268;8.308;2023-05-09T13:51:44;4.43;;;4.03;;
37657;SDS011;23500;53.268;8.308;2023-05-09T13:54:10;4.50;;;3.63;;
37657;SDS011;23500;53.268;8.308;2023-05-09T13:56:41;5.00;;;4.20;;
37657;SDS011;23500;53.268;8.308;2023-05-09T13:59:07;5.50;;;4.30;;
37657;SDS011;23500;53.268;8.308;2023-05-09T14:01:33;5.32;;;4.38;;
37657;SDS011;23500;53.268;8.308;2023-05-09T14:03:59;4.38;;;3.97;;
37657;SDS011;23500;53.268;8.308;2023-05-09T14:06:26;4.80;;;4.30;;
37657;SDS011;23500;53.268;8.308;2023-05-09T14:08:53;5.43;;;4.20;;
37657;SDS011;23500;53.268;8.308;2023-05-09T14:11:22;5.13;;;3.90;;
37657;SDS011;23500;53.268;8.308;2023-05-09T14:13:49;4.75;;;4.00;;
37657;SDS011;23500;53.268;8.308;2023-05-09T14:16:16;5.40;;;4.65;;
37657;SDS011;23500;53.268;8.308;2023-05-09T14:18:42;5.80;;;4.10;;
37657;SDS011;23500;53.268;8.308;2023-05-09T14:21:08;4.82;;;4.30;;
37657;SDS011;23500;53.268;8.308;2023-05-09T14:23:33;4.72;;;4.03;;
37657;SDS011;23500;53.268;8.308;2023-05-09T14:26:00;4.70;;;4.22;;
37657;SDS011;23500;53.268;8.308;2023-05-09T14:28:26;5.00;;;4.50;;
37657;SDS011;23500;53.268;8.308;2023-05-09T14:30:52;4.55;;;4.03;;
37657;SDS011;23500;53.268;8.308;2023-05-09T14:33:17;5.50;;;4.40;;
37657;SDS011;23500;53.268;8.308;2023-05-09T14:35:43;5.05;;;4.20;;
37657;SDS011;23500;53.268;8.308;2023-05-09T14:38:09;4.97;;;4.03;;
37657;SDS011;23500;53.268;8.308;2023-05-09T14:40:36;5.13;;;4.10;;
37657;SDS011;23500;53.268;8.308;2023-05-09T14:43:02;4.93;;;4.43;;
37657;SDS011;23500;53.268;8.308;2023-05-09T14:45:28;5.60;;;4.45;;
37657;SDS011;23500;53.268;8.308;2023-05-09T14:47:55;4.20;;;3.80;;
37657;SDS011;23500;53.268;8.308;2023-05-09T14:50:21;4.97;;;4.30;;
37657;SDS011;23500;53.268;8.308;2023-05-09T14:52:47;6.30;;;4.32;;
37657;SDS011;23500;53.268;8.308;2023-05-09T14:55:14;4.65;;;3.83;;
37657;SDS011;23500;53.268;8.308;2023-05-09T14:57:41;5.57;;;4.30;;
37657;SDS011;23500;53.268;8.308;2023-05-09T15:00:07;5.50;;;4.20;;
37657;SDS011;23500;53.268;8.308;2023-05-09T15:02:34;5.60;;;4.20;;
37657;SDS011;23500;53.268;8.308;2023-05-09T15:05:00;4.20;;;3.72;;
37657;SDS011;23500;53.268;8.308;2023-05-09T15:07:26;4.85;;;4.32;;
37657;SDS011;23500;53.268;8.308;2023-05-09T15:09:51;4.75;;;4.20;;
37657;SDS011;23500;53.268;8.308;2023-05-09T15:12:17;4.80;;;4.32;;
37657;SDS011;23500;53.268;8.308;2023-05-09T15:14:43;6.30;;;4.30;;